Gas Grouper — V7TZ2 — position and weather

sailwx.info

Track history (hours):
 
Tides and Currents Weather Stations Pressure Air Temp Water Temp Dewpoint Dewpoint Depression Visibility Wind Speed Wind Dir Waves Ship Positions

Gas Grouper

Last reported at 2017-Sep-21 19:01 UTC. Time now 2017-Sep-21 19:30 UTC.
Position N 38°33' W 009°54'.

Length 174 m; draft 10.3 m.

Type: Ship (hazmat cat D). MMSI: 538003910.

Date/timePositionNaut miles runAvg speedWind from/ knotsBaromVisibWave heightAir tempDewpointWater temp
2017-Sep-21 19:01N 38°33' W 009°54'713.4
2017-Sep-21 18:31N 38°27' W 009°53'713.5
2017-Sep-21 18:00N 38°20' W 009°50'813.6
2017-Sep-21 17:24N 38°12' W 009°48'613.4
2017-Sep-21 16:59N 38°06' W 009°46'613.3
2017-Sep-21 16:31N 38°00' W 009°45'713.4
2017-Sep-21 16:01N 37°54' W 009°43'713.6
2017-Sep-21 15:30N 37°47' W 009°41'612.7
2017-Sep-21 15:00N 37°41' W 009°39'611.6
2017-Sep-21 14:31N 37°35' W 009°37'1011.8
2017-Sep-21 13:40N 37°26' W 009°34'1811.9
2017-Sep-21 12:11N 37°09' W 009°30'711.8
2017-Sep-21 11:36N 37°02' W 009°28'311.6
2017-Sep-21 11:23N 36°59' W 009°27'1411.4
2017-Sep-21 10:09N 36°47' W 009°20'411.8
2017-Sep-21 09:51N 36°44' W 009°17'511.4
2017-Sep-21 09:23N 36°40' W 009°12'511.3
2017-Sep-21 08:56N 36°39' W 009°06'511.5
2017-Sep-21 08:30N 36°38' W 008°59'612.0
2017-Sep-21 08:01N 36°36' W 008°52'611.9
2017-Sep-21 07:31N 36°35' W 008°45'612.0
2017-Sep-21 07:01N 36°33' W 008°38'712.3
2017-Sep-21 06:28N 36°32' W 008°30'612.1
2017-Sep-21 06:01N 36°30' W 008°23'1712.3
2017-Sep-21 04:40N 36°26' W 008°04'212.3
2017-Sep-21 04:31N 36°25' W 008°01'612.4
2017-Sep-21 04:01N 36°23' W 007°54'912.4
2017-Sep-21 03:15N 36°20' W 007°43'412.5
2017-Sep-21 02:54N 36°19' W 007°38'9912.3
2017-Sep-20 18:48N 35°58' W 005°37'310.4
2017-Sep-20 18:30N 35°59' W 005°34'4 9.1
2017-Sep-20 18:00N 36°00' W 005°28'510.0
2017-Sep-20 17:31N 36°02' W 005°22'510.8
2017-Sep-20 17:00N 36°03' W 005°16'20511.7
2017-Sep-19 23:28N 36°35' W 001°04'1212.7
2017-Sep-19 22:34N 36°37' W 000°50'212.6
2017-Sep-19 22:26N 36°38' W 000°48'62312.1
2017-Sep-17 19:04N 37°04' E 012°10'111.7
2017-Sep-17 19:00N 37°03' E 012°11'811.5
2017-Sep-17 18:18N 36°59' E 012°19'611.4
2017-Sep-17 17:47N 36°56' E 012°26'1111.4
2017-Sep-17 16:48N 36°51' E 012°38'411.4
2017-Sep-17 16:26N 36°49' E 012°43'511.4
2017-Sep-17 16:00N 36°47' E 012°48'611.2
2017-Sep-17 15:30N 36°45' E 012°55'511.1
2017-Sep-17 15:00N 36°42' E 013°00'611.2
2017-Sep-17 14:30N 36°40' E 013°07'611.4
2017-Sep-17 14:00N 36°39' E 013°14'1211.8
2017-Sep-17 12:58N 36°36' E 013°29'611.7
2017-Sep-17 12:30N 36°34' E 013°35'611.9
2017-Sep-17 12:00N 36°32' E 013°42'612.0
2017-Sep-17 11:30N 36°31' E 013°49'612.0
2017-Sep-17 11:00N 36°29' E 013°57'612.3
2017-Sep-17 10:30N 36°27' E 014°04'612.2
2017-Sep-17 10:00N 36°25' E 014°11'612.3
2017-Sep-17 09:30N 36°24' E 014°18'612.2
2017-Sep-17 09:00N 36°23' E 014°26'612.1
2017-Sep-17 08:30N 36°21' E 014°33'612.1
2017-Sep-17 08:00N 36°19' E 014°40'612.0
2017-Sep-17 07:30N 36°18' E 014°48'612.0
2017-Sep-17 07:00N 36°15' E 014°55'911.9
2017-Sep-17 06:15N 36°13' E 015°05'411.8
2017-Sep-17 05:53N 36°11' E 015°10'511.9
2017-Sep-17 05:30N 36°10' E 015°16'612.0
2017-Sep-17 05:00N 36°09' E 015°23'612.2
2017-Sep-17 04:30N 36°08' E 015°30'612.4
2017-Sep-17 04:00N 36°05' E 015°37'612.5
2017-Sep-17 03:30N 36°04' E 015°45'612.6
2017-Sep-17 03:00N 36°02' E 015°52'612.9
2017-Sep-17 02:30N 36°00' E 015°60'713.0
2017-Sep-17 02:00N 36°00' E 016°08'713.2
2017-Sep-17 01:30N 36°00' E 016°16'613.0
2017-Sep-17 01:00N 36°00' E 016°24'612.8
2017-Sep-17 00:30N 36°00' E 016°32'612.7
2017-Sep-17 00:00N 36°00' E 016°40'612.6
2017-Sep-16 23:30N 36°00' E 016°48'612.6
2017-Sep-16 23:00N 36°00' E 016°56'612.6
2017-Sep-16 22:30N 35°60' E 017°03'612.4
2017-Sep-16 22:00N 35°60' E 017°11'612.4
2017-Sep-16 21:30N 36°00' E 017°19'612.5
2017-Sep-16 21:00N 36°00' E 017°26'612.7
2017-Sep-16 20:30N 35°60' E 017°34'612.7
2017-Sep-16 20:00N 36°00' E 017°42'712.7
2017-Sep-16 19:29N 36°00' E 017°50'612.5
2017-Sep-16 19:00N 36°00' E 017°57'612.3
2017-Sep-16 18:30N 36°00' E 018°05'612.0
2017-Sep-16 18:00N 36°00' E 018°13'612.0
2017-Sep-16 17:30N 36°01' E 018°20'612.1
2017-Sep-16 17:00N 36°00' E 018°27'612.1
2017-Sep-16 16:30N 35°60' E 018°35'612.2
2017-Sep-16 16:00N 35°60' E 018°42'612.2
2017-Sep-16 15:30N 35°60' E 018°50'612.4
2017-Sep-16 15:00N 35°60' E 018°58'612.5
2017-Sep-16 14:30N 36°00' E 019°05'612.5
2017-Sep-16 14:00N 36°00' E 019°13'612.6
2017-Sep-16 13:30N 36°00' E 019°21'3112.6
2017-Sep-16 11:03N 35°60' E 019°59'412.3
2017-Sep-16 10:46N 36°00' E 020°03'312.4
2017-Sep-16 10:30N 36°00' E 020°07'11512.8
2017-Sep-16 01:29N 36°00' E 022°30'5011.3
2017-Sep-15 21:05N 36°18' E 023°27'212.3
2017-Sep-15 20:54N 36°20' E 023°29'512.2
2017-Sep-15 20:30N 36°23' E 023°34'612.2
2017-Sep-15 20:00N 36°27' E 023°39'612.5
2017-Sep-15 19:30N 36°32' E 023°44'612.5
2017-Sep-15 19:00N 36°36' E 023°50'712.5
2017-Sep-15 18:27N 36°41' E 023°56'512.5
2017-Sep-15 18:00N 36°45' E 024°00'712.6
2017-Sep-15 17:26N 36°52' E 024°03'613.0
2017-Sep-15 17:00N 36°58' E 024°05'713.2
2017-Sep-15 16:30N 37°04' E 024°07'713.2
2017-Sep-15 16:00N 37°10' E 024°09'613.0
2017-Sep-15 15:30N 37°17' E 024°11'712.5
2017-Sep-15 14:55N 37°23' E 024°15'  
2017-Sep-12 07:00N 42°07' E 029°30'713.5
2017-Sep-12 06:30N 42°13' E 029°33'714.8
2017-Sep-12 06:00N 42°20' E 029°36'714.7
2017-Sep-12 05:31N 42°27' E 029°40'713.1
2017-Sep-12 05:00N 42°33' E 029°43'612.4
2017-Sep-12 04:30N 42°39' E 029°45'612.4
2017-Sep-12 04:00N 42°45' E 029°48'612.3
2017-Sep-12 03:30N 42°51' E 029°51'612.3
2017-Sep-12 03:00N 42°57' E 029°53'612.4
2017-Sep-12 02:30N 43°03' E 029°56'612.6
2017-Sep-12 02:00N 43°09' E 029°58'612.6
2017-Sep-12 01:30N 43°15' E 030°01'612.6
2017-Sep-12 01:00N 43°20' E 030°04'612.7
2017-Sep-12 00:30N 43°26' E 030°07'612.8
2017-Sep-12 00:00N 43°33' E 030°10'613.0
2017-Sep-11 23:30N 43°39' E 030°13'612.8
2017-Sep-11 23:00N 43°45' E 030°16'612.6
2017-Sep-11 22:30N 43°51' E 030°19'612.3
2017-Sep-11 22:00N 43°57' E 030°21'612.5
2017-Sep-11 21:30N 44°03' E 030°24'612.5
2017-Sep-11 21:00N 44°08' E 030°27'612.5
2017-Sep-11 20:30N 44°14' E 030°30'612.3
2017-Sep-11 20:00N 44°20' E 030°33'713.1
2017-Sep-11 19:31N 44°26' E 030°36'714.5
2017-Sep-11 19:01N 44°33' E 030°39'  
Track history (hours):
 
Tides and Currents Weather Stations Pressure Air Temp Water Temp Dewpoint Dewpoint Depression Visibility Wind Speed Wind Dir Waves Ship Positions

Gas Grouper

Last reported at 2017-Sep-21 19:01 UTC. Time now 2017-Sep-21 19:30 UTC.
Position N 38°33' W 009°54'.

Length 174 m; draft 10.3 m.

Type: Ship (hazmat cat D). MMSI: 538003910.

Date/timePositionNaut miles runAvg speedWind from/ knotsBaromVisibWave heightAir tempDewpointWater temp
2017-Sep-21 19:01N 38°33' W 009°54'713.4
2017-Sep-21 18:31N 38°27' W 009°53'713.5
2017-Sep-21 18:00N 38°20' W 009°50'813.6
2017-Sep-21 17:24N 38°12' W 009°48'613.4
2017-Sep-21 16:59N 38°06' W 009°46'613.3
2017-Sep-21 16:31N 38°00' W 009°45'713.4
2017-Sep-21 16:01N 37°54' W 009°43'713.6
2017-Sep-21 15:30N 37°47' W 009°41'612.7
2017-Sep-21 15:00N 37°41' W 009°39'611.6
2017-Sep-21 14:31N 37°35' W 009°37'1011.8
2017-Sep-21 13:40N 37°26' W 009°34'1811.9
2017-Sep-21 12:11N 37°09' W 009°30'711.8
2017-Sep-21 11:36N 37°02' W 009°28'311.6
2017-Sep-21 11:23N 36°59' W 009°27'1411.4
2017-Sep-21 10:09N 36°47' W 009°20'411.8
2017-Sep-21 09:51N 36°44' W 009°17'511.4
2017-Sep-21 09:23N 36°40' W 009°12'511.3
2017-Sep-21 08:56N 36°39' W 009°06'511.5
2017-Sep-21 08:30N 36°38' W 008°59'612.0
2017-Sep-21 08:01N 36°36' W 008°52'611.9
2017-Sep-21 07:31N 36°35' W 008°45'612.0
2017-Sep-21 07:01N 36°33' W 008°38'712.3
2017-Sep-21 06:28N 36°32' W 008°30'612.1
2017-Sep-21 06:01N 36°30' W 008°23'1712.3
2017-Sep-21 04:40N 36°26' W 008°04'212.3
2017-Sep-21 04:31N 36°25' W 008°01'612.4
2017-Sep-21 04:01N 36°23' W 007°54'912.4
2017-Sep-21 03:15N 36°20' W 007°43'412.5
2017-Sep-21 02:54N 36°19' W 007°38'9912.3
2017-Sep-20 18:48N 35°58' W 005°37'310.4
2017-Sep-20 18:30N 35°59' W 005°34'4 9.1
2017-Sep-20 18:00N 36°00' W 005°28'510.0
2017-Sep-20 17:31N 36°02' W 005°22'510.8
2017-Sep-20 17:00N 36°03' W 005°16'20511.7
2017-Sep-19 23:28N 36°35' W 001°04'1212.7
2017-Sep-19 22:34N 36°37' W 000°50'212.6
2017-Sep-19 22:26N 36°38' W 000°48'62312.1
2017-Sep-17 19:04N 37°04' E 012°10'111.7
2017-Sep-17 19:00N 37°03' E 012°11'811.5
2017-Sep-17 18:18N 36°59' E 012°19'611.4
2017-Sep-17 17:47N 36°56' E 012°26'1111.4
2017-Sep-17 16:48N 36°51' E 012°38'411.4
2017-Sep-17 16:26N 36°49' E 012°43'511.4
2017-Sep-17 16:00N 36°47' E 012°48'611.2
2017-Sep-17 15:30N 36°45' E 012°55'511.1
2017-Sep-17 15:00N 36°42' E 013°00'611.2
2017-Sep-17 14:30N 36°40' E 013°07'611.4
2017-Sep-17 14:00N 36°39' E 013°14'1211.8
2017-Sep-17 12:58N 36°36' E 013°29'611.7
2017-Sep-17 12:30N 36°34' E 013°35'611.9
2017-Sep-17 12:00N 36°32' E 013°42'612.0
2017-Sep-17 11:30N 36°31' E 013°49'612.0
2017-Sep-17 11:00N 36°29' E 013°57'612.3
2017-Sep-17 10:30N 36°27' E 014°04'612.2
2017-Sep-17 10:00N 36°25' E 014°11'612.3
2017-Sep-17 09:30N 36°24' E 014°18'612.2
2017-Sep-17 09:00N 36°23' E 014°26'612.1
2017-Sep-17 08:30N 36°21' E 014°33'612.1
2017-Sep-17 08:00N 36°19' E 014°40'612.0
2017-Sep-17 07:30N 36°18' E 014°48'612.0
2017-Sep-17 07:00N 36°15' E 014°55'911.9
2017-Sep-17 06:15N 36°13' E 015°05'411.8
2017-Sep-17 05:53N 36°11' E 015°10'511.9
2017-Sep-17 05:30N 36°10' E 015°16'612.0
2017-Sep-17 05:00N 36°09' E 015°23'612.2
2017-Sep-17 04:30N 36°08' E 015°30'612.4
2017-Sep-17 04:00N 36°05' E 015°37'612.5
2017-Sep-17 03:30N 36°04' E 015°45'612.6
2017-Sep-17 03:00N 36°02' E 015°52'612.9
2017-Sep-17 02:30N 36°00' E 015°60'713.0
2017-Sep-17 02:00N 36°00' E 016°08'713.2
2017-Sep-17 01:30N 36°00' E 016°16'613.0
2017-Sep-17 01:00N 36°00' E 016°24'612.8
2017-Sep-17 00:30N 36°00' E 016°32'612.7
2017-Sep-17 00:00N 36°00' E 016°40'612.6
2017-Sep-16 23:30N 36°00' E 016°48'612.6
2017-Sep-16 23:00N 36°00' E 016°56'612.6
2017-Sep-16 22:30N 35°60' E 017°03'612.4
2017-Sep-16 22:00N 35°60' E 017°11'612.4
2017-Sep-16 21:30N 36°00' E 017°19'612.5
2017-Sep-16 21:00N 36°00' E 017°26'612.7
2017-Sep-16 20:30N 35°60' E 017°34'612.7
2017-Sep-16 20:00N 36°00' E 017°42'712.7
2017-Sep-16 19:29N 36°00' E 017°50'612.5
2017-Sep-16 19:00N 36°00' E 017°57'612.3
2017-Sep-16 18:30N 36°00' E 018°05'612.0
2017-Sep-16 18:00N 36°00' E 018°13'612.0
2017-Sep-16 17:30N 36°01' E 018°20'612.1
2017-Sep-16 17:00N 36°00' E 018°27'612.1
2017-Sep-16 16:30N 35°60' E 018°35'612.2
2017-Sep-16 16:00N 35°60' E 018°42'612.2
2017-Sep-16 15:30N 35°60' E 018°50'612.4
2017-Sep-16 15:00N 35°60' E 018°58'612.5
2017-Sep-16 14:30N 36°00' E 019°05'612.5
2017-Sep-16 14:00N 36°00' E 019°13'612.6
2017-Sep-16 13:30N 36°00' E 019°21'3112.6
2017-Sep-16 11:03N 35°60' E 019°59'412.3
2017-Sep-16 10:46N 36°00' E 020°03'312.4
2017-Sep-16 10:30N 36°00' E 020°07'11512.8
2017-Sep-16 01:29N 36°00' E 022°30'5011.3
2017-Sep-15 21:05N 36°18' E 023°27'212.3
2017-Sep-15 20:54N 36°20' E 023°29'512.2
2017-Sep-15 20:30N 36°23' E 023°34'612.2
2017-Sep-15 20:00N 36°27' E 023°39'612.5
2017-Sep-15 19:30N 36°32' E 023°44'612.5
2017-Sep-15 19:00N 36°36' E 023°50'712.5
2017-Sep-15 18:27N 36°41' E 023°56'512.5
2017-Sep-15 18:00N 36°45' E 024°00'712.6
2017-Sep-15 17:26N 36°52' E 024°03'613.0
2017-Sep-15 17:00N 36°58' E 024°05'713.2
2017-Sep-15 16:30N 37°04' E 024°07'713.2
2017-Sep-15 16:00N 37°10' E 024°09'613.0
2017-Sep-15 15:30N 37°17' E 024°11'712.5
2017-Sep-15 14:55N 37°23' E 024°15'  
2017-Sep-12 07:00N 42°07' E 029°30'713.5
2017-Sep-12 06:30N 42°13' E 029°33'714.8
2017-Sep-12 06:00N 42°20' E 029°36'714.7
2017-Sep-12 05:31N 42°27' E 029°40'713.1
2017-Sep-12 05:00N 42°33' E 029°43'612.4
2017-Sep-12 04:30N 42°39' E 029°45'612.4
2017-Sep-12 04:00N 42°45' E 029°48'612.3
2017-Sep-12 03:30N 42°51' E 029°51'612.3
2017-Sep-12 03:00N 42°57' E 029°53'612.4
2017-Sep-12 02:30N 43°03' E 029°56'612.6
2017-Sep-12 02:00N 43°09' E 029°58'612.6
2017-Sep-12 01:30N 43°15' E 030°01'612.6
2017-Sep-12 01:00N 43°20' E 030°04'612.7
2017-Sep-12 00:30N 43°26' E 030°07'612.8
2017-Sep-12 00:00N 43°33' E 030°10'613.0
2017-Sep-11 23:30N 43°39' E 030°13'612.8
2017-Sep-11 23:00N 43°45' E 030°16'612.6
2017-Sep-11 22:30N 43°51' E 030°19'612.3
2017-Sep-11 22:00N 43°57' E 030°21'612.5
2017-Sep-11 21:30N 44°03' E 030°24'612.5
2017-Sep-11 21:00N 44°08' E 030°27'612.5
2017-Sep-11 20:30N 44°14' E 030°30'612.3
2017-Sep-11 20:00N 44°20' E 030°33'713.1
2017-Sep-11 19:31N 44°26' E 030°36'714.5
2017-Sep-11 19:01N 44°33' E 030°39'  

Dump ship's entire track history